sensor_id;sensor_type;location;lat;lon;timestamp;P1;durP1;ratioP1;P2;durP2;ratioP2
62584;SDS011;48643;51.670;5.808;2024-03-06T00:02:21;9.50;;;5.00;;
62584;SDS011;48643;51.670;5.808;2024-03-06T00:04:48;7.72;;;5.00;;
62584;SDS011;48643;51.670;5.808;2024-03-06T00:07:16;8.27;;;5.00;;
62584;SDS011;48643;51.670;5.808;2024-03-06T00:09:43;7.85;;;4.78;;
62584;SDS011;48643;51.670;5.808;2024-03-06T00:12:10;7.03;;;4.93;;
62584;SDS011;48643;51.670;5.808;2024-03-06T00:14:37;7.70;;;5.10;;
62584;SDS011;48643;51.670;5.808;2024-03-06T00:17:04;7.82;;;5.20;;
62584;SDS011;48643;51.670;5.808;2024-03-06T00:19:32;7.68;;;5.22;;
62584;SDS011;48643;51.670;5.808;2024-03-06T00:21:59;7.30;;;5.07;;
62584;SDS011;48643;51.670;5.808;2024-03-06T00:24:27;8.25;;;5.10;;
62584;SDS011;48643;51.670;5.808;2024-03-06T00:26:54;8.93;;;4.90;;
62584;SDS011;48643;51.670;5.808;2024-03-06T00:29:22;8.00;;;4.88;;
62584;SDS011;48643;51.670;5.808;2024-03-06T00:31:48;7.85;;;4.80;;
62584;SDS011;48643;51.670;5.808;2024-03-06T00:34:15;7.80;;;5.00;;
62584;SDS011;48643;51.670;5.808;2024-03-06T00:36:42;6.30;;;4.72;;
62584;SDS011;48643;51.670;5.808;2024-03-06T00:39:10;7.97;;;4.70;;
62584;SDS011;48643;51.670;5.808;2024-03-06T00:41:37;8.15;;;5.20;;
62584;SDS011;48643;51.670;5.808;2024-03-06T00:44:04;6.82;;;4.70;;
62584;SDS011;48643;51.670;5.808;2024-03-06T00:46:32;7.93;;;4.93;;
62584;SDS011;48643;51.670;5.808;2024-03-06T00:48:59;6.70;;;4.80;;
62584;SDS011;48643;51.670;5.808;2024-03-06T00:51:26;7.20;;;5.10;;
62584;SDS011;48643;51.670;5.808;2024-03-06T00:54:07;8.57;;;5.53;;
62584;SDS011;48643;51.670;5.808;2024-03-06T00:56:37;6.97;;;4.70;;
62584;SDS011;48643;51.670;5.808;2024-03-06T00:59:05;6.95;;;4.97;;
62584;SDS011;48643;51.670;5.808;2024-03-06T01:01:32;7.18;;;4.90;;
62584;SDS011;48643;51.670;5.808;2024-03-06T01:03:59;8.02;;;4.60;;
62584;SDS011;48643;51.670;5.808;2024-03-06T01:06:26;6.78;;;4.72;;
62584;SDS011;48643;51.670;5.808;2024-03-06T01:08:53;8.68;;;5.05;;
62584;SDS011;48643;51.670;5.808;2024-03-06T01:11:21;6.63;;;4.75;;
62584;SDS011;48643;51.670;5.808;2024-03-06T01:13:48;7.78;;;4.80;;
62584;SDS011;48643;51.670;5.808;2024-03-06T01:16:15;6.68;;;4.97;;
62584;SDS011;48643;51.670;5.808;2024-03-06T01:18:42;7.68;;;4.95;;
62584;SDS011;48643;51.670;5.808;2024-03-06T01:21:09;7.45;;;4.97;;
62584;SDS011;48643;51.670;5.808;2024-03-06T01:23:36;7.72;;;4.82;;
62584;SDS011;48643;51.670;5.808;2024-03-06T01:26:02;7.05;;;4.40;;
62584;SDS011;48643;51.670;5.808;2024-03-06T01:28:29;7.13;;;4.80;;
62584;SDS011;48643;51.670;5.808;2024-03-06T01:30:56;6.38;;;4.55;;
62584;SDS011;48643;51.670;5.808;2024-03-06T01:33:25;7.07;;;4.60;;
62584;SDS011;48643;51.670;5.808;2024-03-06T01:35:52;6.28;;;4.60;;
62584;SDS011;48643;51.670;5.808;2024-03-06T01:38:19;9.10;;;5.20;;
62584;SDS011;48643;51.670;5.808;2024-03-06T01:40:46;7.03;;;4.60;;
62584;SDS011;48643;51.670;5.808;2024-03-06T01:43:22;8.73;;;4.80;;
62584;SDS011;48643;51.670;5.808;2024-03-06T01:45:51;6.97;;;4.97;;
62584;SDS011;48643;51.670;5.808;2024-03-06T01:48:23;7.07;;;4.90;;
62584;SDS011;48643;51.670;5.808;2024-03-06T01:50:53;7.47;;;4.95;;
62584;SDS011;48643;51.670;5.808;2024-03-06T01:53:22;9.82;;;5.10;;
62584;SDS011;48643;51.670;5.808;2024-03-06T01:55:51;7.72;;;4.82;;
62584;SDS011;48643;51.670;5.808;2024-03-06T01:58:18;7.03;;;4.85;;
62584;SDS011;48643;51.670;5.808;2024-03-06T02:00:48;6.57;;;4.80;;
62584;SDS011;48643;51.670;5.808;2024-03-06T02:03:17;7.03;;;4.88;;
62584;SDS011;48643;51.670;5.808;2024-03-06T02:05:47;7.00;;;4.95;;
62584;SDS011;48643;51.670;5.808;2024-03-06T02:08:15;7.30;;;5.00;;
62584;SDS011;48643;51.670;5.808;2024-03-06T02:10:44;8.10;;;5.35;;
62584;SDS011;48643;51.670;5.808;2024-03-06T02:13:11;8.27;;;5.30;;
62584;SDS011;48643;51.670;5.808;2024-03-06T02:15:40;7.78;;;5.20;;
62584;SDS011;48643;51.670;5.808;2024-03-06T02:18:07;9.95;;;5.97;;
62584;SDS011;48643;51.670;5.808;2024-03-06T02:20:37;6.55;;;4.80;;
62584;SDS011;48643;51.670;5.808;2024-03-06T02:23:06;7.28;;;5.28;;
62584;SDS011;48643;51.670;5.808;2024-03-06T02:25:34;7.95;;;5.05;;
62584;SDS011;48643;51.670;5.808;2024-03-06T02:28:01;7.78;;;5.30;;
62584;SDS011;48643;51.670;5.808;2024-03-06T02:30:28;9.75;;;5.05;;
62584;SDS011;48643;51.670;5.808;2024-03-06T02:32:56;8.00;;;5.07;;
62584;SDS011;48643;51.670;5.808;2024-03-06T02:35:24;7.43;;;5.15;;
62584;SDS011;48643;51.670;5.808;2024-03-06T02:37:50;9.07;;;5.32;;
62584;SDS011;48643;51.670;5.808;2024-03-06T02:40:17;7.72;;;5.55;;
62584;SDS011;48643;51.670;5.808;2024-03-06T02:42:44;9.45;;;5.70;;
62584;SDS011;48643;51.670;5.808;2024-03-06T02:45:11;8.48;;;5.30;;
62584;SDS011;48643;51.670;5.808;2024-03-06T02:47:38;7.28;;;5.38;;
62584;SDS011;48643;51.670;5.808;2024-03-06T02:50:05;7.47;;;5.28;;
62584;SDS011;48643;51.670;5.808;2024-03-06T02:52:34;7.53;;;5.05;;
62584;SDS011;48643;51.670;5.808;2024-03-06T02:55:01;8.25;;;5.28;;
62584;SDS011;48643;51.670;5.808;2024-03-06T02:57:28;6.88;;;5.10;;
62584;SDS011;48643;51.670;5.808;2024-03-06T02:59:56;7.88;;;5.35;;
62584;SDS011;48643;51.670;5.808;2024-03-06T03:02:23;8.38;;;5.50;;
62584;SDS011;48643;51.670;5.808;2024-03-06T03:04:50;7.78;;;5.40;;
62584;SDS011;48643;51.670;5.808;2024-03-06T03:07:20;7.60;;;5.30;;
62584;SDS011;48643;51.670;5.808;2024-03-06T03:09:47;6.50;;;5.07;;
62584;SDS011;48643;51.670;5.808;2024-03-06T03:12:14;7.63;;;5.50;;
62584;SDS011;48643;51.670;5.808;2024-03-06T03:14:41;8.98;;;5.70;;
62584;SDS011;48643;51.670;5.808;2024-03-06T03:17:08;7.38;;;5.35;;
62584;SDS011;48643;51.670;5.808;2024-03-06T03:19:35;8.15;;;5.30;;
62584;SDS011;48643;51.670;5.808;2024-03-06T03:22:02;7.95;;;5.30;;
62584;SDS011;48643;51.670;5.808;2024-03-06T03:24:30;8.57;;;5.30;;
62584;SDS011;48643;51.670;5.808;2024-03-06T03:26:57;7.30;;;5.25;;
62584;SDS011;48643;51.670;5.808;2024-03-06T03:29:25;7.95;;;5.30;;
62584;SDS011;48643;51.670;5.808;2024-03-06T03:31:52;8.38;;;5.90;;
62584;SDS011;48643;51.670;5.808;2024-03-06T03:34:19;8.55;;;5.40;;
62584;SDS011;48643;51.670;5.808;2024-03-06T03:36:47;7.25;;;5.30;;
62584;SDS011;48643;51.670;5.808;2024-03-06T03:39:15;7.55;;;5.15;;
62584;SDS011;48643;51.670;5.808;2024-03-06T03:41:47;8.93;;;5.82;;
62584;SDS011;48643;51.670;5.808;2024-03-06T03:44:15;7.05;;;4.82;;
62584;SDS011;48643;51.670;5.808;2024-03-06T03:46:42;7.30;;;5.57;;
62584;SDS011;48643;51.670;5.808;2024-03-06T03:49:09;9.90;;;5.53;;
62584;SDS011;48643;51.670;5.808;2024-03-06T03:51:39;9.52;;;5.43;;
62584;SDS011;48643;51.670;5.808;2024-03-06T03:54:07;7.93;;;5.55;;
62584;SDS011;48643;51.670;5.808;2024-03-06T03:56:34;7.00;;;5.03;;
62584;SDS011;48643;51.670;5.808;2024-03-06T03:59:01;7.97;;;5.45;;
62584;SDS011;48643;51.670;5.808;2024-03-06T04:01:30;8.05;;;5.40;;
62584;SDS011;48643;51.670;5.808;2024-03-06T04:03:57;7.63;;;5.20;;
62584;SDS011;48643;51.670;5.808;2024-03-06T04:06:24;7.20;;;5.57;;
62584;SDS011;48643;51.670;5.808;2024-03-06T04:08:51;7.25;;;5.57;;
62584;SDS011;48643;51.670;5.808;2024-03-06T04:11:18;7.20;;;5.18;;
62584;SDS011;48643;51.670;5.808;2024-03-06T04:13:45;6.97;;;5.10;;
62584;SDS011;48643;51.670;5.808;2024-03-06T04:16:16;7.30;;;4.85;;
62584;SDS011;48643;51.670;5.808;2024-03-06T04:18:46;7.85;;;5.45;;
62584;SDS011;48643;51.670;5.808;2024-03-06T04:21:13;7.68;;;5.40;;
62584;SDS011;48643;51.670;5.808;2024-03-06T04:23:42;7.07;;;4.75;;
62584;SDS011;48643;51.670;5.808;2024-03-06T04:26:09;8.25;;;5.97;;
62584;SDS011;48643;51.670;5.808;2024-03-06T04:28:37;6.50;;;5.07;;
62584;SDS011;48643;51.670;5.808;2024-03-06T04:31:04;7.60;;;5.32;;
62584;SDS011;48643;51.670;5.808;2024-03-06T04:33:32;8.02;;;5.20;;
62584;SDS011;48643;51.670;5.808;2024-03-06T04:36:00;6.78;;;4.82;;
62584;SDS011;48643;51.670;5.808;2024-03-06T04:38:32;7.43;;;5.18;;
62584;SDS011;48643;51.670;5.808;2024-03-06T04:41:00;8.20;;;5.38;;
62584;SDS011;48643;51.670;5.808;2024-03-06T04:43:27;6.90;;;5.22;;
62584;SDS011;48643;51.670;5.808;2024-03-06T04:45:53;9.75;;;5.35;;
62584;SDS011;48643;51.670;5.808;2024-03-06T04:48:20;7.80;;;5.45;;
62584;SDS011;48643;51.670;5.808;2024-03-06T04:50:47;7.15;;;5.40;;
62584;SDS011;48643;51.670;5.808;2024-03-06T04:53:15;7.20;;;5.35;;
62584;SDS011;48643;51.670;5.808;2024-03-06T04:55:42;10.30;;;5.43;;
62584;SDS011;48643;51.670;5.808;2024-03-06T04:58:09;13.60;;;5.00;;
62584;SDS011;48643;51.670;5.808;2024-03-06T05:00:36;12.80;;;5.50;;
62584;SDS011;48643;51.670;5.808;2024-03-06T05:03:03;6.82;;;5.00;;
62584;SDS011;48643;51.670;5.808;2024-03-06T05:05:49;7.07;;;5.20;;
62584;SDS011;48643;51.670;5.808;2024-03-06T05:08:33;7.55;;;5.00;;
62584;SDS011;48643;51.670;5.808;2024-03-06T05:11:18;5.97;;;4.80;;
62584;SDS011;48643;51.670;5.808;2024-03-06T05:14:02;6.55;;;5.13;;
62584;SDS011;48643;51.670;5.808;2024-03-06T05:16:46;7.10;;;4.90;;
62584;SDS011;48643;51.670;5.808;2024-03-06T05:19:30;8.95;;;5.32;;
62584;SDS011;48643;51.670;5.808;2024-03-06T05:22:15;6.88;;;4.93;;
62584;SDS011;48643;51.670;5.808;2024-03-06T05:25:00;9.18;;;5.10;;
62584;SDS011;48643;51.670;5.808;2024-03-06T05:27:44;7.10;;;5.13;;
62584;SDS011;48643;51.670;5.808;2024-03-06T05:30:28;6.88;;;5.13;;
62584;SDS011;48643;51.670;5.808;2024-03-06T05:33:13;7.85;;;5.72;;
62584;SDS011;48643;51.670;5.808;2024-03-06T05:35:57;7.22;;;5.22;;
62584;SDS011;48643;51.670;5.808;2024-03-06T05:38:41;6.90;;;5.10;;
62584;SDS011;48643;51.670;5.808;2024-03-06T05:41:26;7.72;;;5.20;;
62584;SDS011;48643;51.670;5.808;2024-03-06T05:44:10;7.28;;;4.97;;
62584;SDS011;48643;51.670;5.808;2024-03-06T05:46:54;7.05;;;5.25;;
62584;SDS011;48643;51.670;5.808;2024-03-06T05:49:40;6.90;;;5.22;;
62584;SDS011;48643;51.670;5.808;2024-03-06T05:52:24;7.25;;;5.10;;
62584;SDS011;48643;51.670;5.808;2024-03-06T05:55:09;7.97;;;5.53;;
62584;SDS011;48643;51.670;5.808;2024-03-06T05:57:53;6.90;;;5.35;;
62584;SDS011;48643;51.670;5.808;2024-03-06T06:00:39;7.50;;;5.43;;
62584;SDS011;48643;51.670;5.808;2024-03-06T06:03:07;7.65;;;5.10;;
62584;SDS011;48643;51.670;5.808;2024-03-06T06:05:34;7.28;;;5.40;;
62584;SDS011;48643;51.670;5.808;2024-03-06T06:08:03;6.68;;;5.07;;
62584;SDS011;48643;51.670;5.808;2024-03-06T06:10:31;7.07;;;5.60;;
62584;SDS011;48643;51.670;5.808;2024-03-06T06:12:58;6.28;;;5.03;;
62584;SDS011;48643;51.670;5.808;2024-03-06T06:15:25;7.43;;;5.63;;
62584;SDS011;48643;51.670;5.808;2024-03-06T06:17:51;6.60;;;5.20;;
62584;SDS011;48643;51.670;5.808;2024-03-06T06:20:18;6.85;;;5.47;;
62584;SDS011;48643;51.670;5.808;2024-03-06T06:22:46;7.82;;;5.90;;
62584;SDS011;48643;51.670;5.808;2024-03-06T06:25:13;6.55;;;5.05;;
62584;SDS011;48643;51.670;5.808;2024-03-06T06:27:41;9.88;;;6.03;;
62584;SDS011;48643;51.670;5.808;2024-03-06T06:30:08;7.63;;;5.57;;
62584;SDS011;48643;51.670;5.808;2024-03-06T06:32:39;8.60;;;5.75;;
62584;SDS011;48643;51.670;5.808;2024-03-06T06:35:08;7.97;;;5.57;;
62584;SDS011;48643;51.670;5.808;2024-03-06T06:37:36;7.75;;;5.40;;
62584;SDS011;48643;51.670;5.808;2024-03-06T06:40:03;8.52;;;5.88;;
62584;SDS011;48643;51.670;5.808;2024-03-06T06:42:36;7.88;;;5.63;;
62584;SDS011;48643;51.670;5.808;2024-03-06T06:45:04;8.63;;;5.72;;
62584;SDS011;48643;51.670;5.808;2024-03-06T06:47:36;6.93;;;5.35;;
62584;SDS011;48643;51.670;5.808;2024-03-06T06:50:03;7.43;;;5.53;;
62584;SDS011;48643;51.670;5.808;2024-03-06T06:52:35;7.72;;;5.57;;
62584;SDS011;48643;51.670;5.808;2024-03-06T06:55:02;7.45;;;5.50;;
62584;SDS011;48643;51.670;5.808;2024-03-06T06:57:30;7.72;;;5.55;;
62584;SDS011;48643;51.670;5.808;2024-03-06T06:59:57;9.00;;;5.30;;
62584;SDS011;48643;51.670;5.808;2024-03-06T07:02:24;7.10;;;5.38;;
62584;SDS011;48643;51.670;5.808;2024-03-06T07:04:51;7.25;;;5.40;;
62584;SDS011;48643;51.670;5.808;2024-03-06T07:07:19;12.85;;;9.00;;
62584;SDS011;48643;51.670;5.808;2024-03-06T07:09:46;14.98;;;10.10;;
62584;SDS011;48643;51.670;5.808;2024-03-06T07:12:12;14.30;;;8.23;;
62584;SDS011;48643;51.670;5.808;2024-03-06T07:14:39;9.77;;;7.85;;
62584;SDS011;48643;51.670;5.808;2024-03-06T07:17:06;10.73;;;7.70;;
62584;SDS011;48643;51.670;5.808;2024-03-06T07:19:33;11.65;;;7.93;;
62584;SDS011;48643;51.670;5.808;2024-03-06T07:22:00;11.38;;;7.70;;
62584;SDS011;48643;51.670;5.808;2024-03-06T07:24:27;8.77;;;7.20;;
62584;SDS011;48643;51.670;5.808;2024-03-06T07:26:53;9.13;;;7.55;;
62584;SDS011;48643;51.670;5.808;2024-03-06T07:29:21;10.27;;;7.43;;
62584;SDS011;48643;51.670;5.808;2024-03-06T07:31:48;11.95;;;7.55;;
62584;SDS011;48643;51.670;5.808;2024-03-06T07:34:14;10.55;;;7.47;;
62584;SDS011;48643;51.670;5.808;2024-03-06T07:36:41;10.70;;;7.68;;
62584;SDS011;48643;51.670;5.808;2024-03-06T07:39:08;10.38;;;6.93;;
62584;SDS011;48643;51.670;5.808;2024-03-06T07:41:35;9.93;;;6.90;;
62584;SDS011;48643;51.670;5.808;2024-03-06T07:44:02;10.80;;;7.13;;
62584;SDS011;48643;51.670;5.808;2024-03-06T07:46:29;11.07;;;7.53;;
62584;SDS011;48643;51.670;5.808;2024-03-06T07:48:56;13.93;;;7.60;;
62584;SDS011;48643;51.670;5.808;2024-03-06T07:51:23;12.00;;;7.20;;
62584;SDS011;48643;51.670;5.808;2024-03-06T07:53:50;14.20;;;7.80;;
62584;SDS011;48643;51.670;5.808;2024-03-06T07:56:17;14.15;;;7.50;;
62584;SDS011;48643;51.670;5.808;2024-03-06T07:58:44;9.40;;;6.97;;
62584;SDS011;48643;51.670;5.808;2024-03-06T08:01:11;13.85;;;6.97;;
62584;SDS011;48643;51.670;5.808;2024-03-06T08:03:39;13.27;;;7.57;;
62584;SDS011;48643;51.670;5.808;2024-03-06T08:06:07;11.70;;;7.20;;
62584;SDS011;48643;51.670;5.808;2024-03-06T08:08:35;11.25;;;7.03;;
62584;SDS011;48643;51.670;5.808;2024-03-06T08:11:02;10.00;;;7.22;;
62584;SDS011;48643;51.670;5.808;2024-03-06T08:13:29;11.98;;;6.90;;
62584;SDS011;48643;51.670;5.808;2024-03-06T08:15:56;10.48;;;7.40;;
62584;SDS011;48643;51.670;5.808;2024-03-06T08:18:23;12.23;;;6.57;;
62584;SDS011;48643;51.670;5.808;2024-03-06T08:20:50;9.07;;;6.57;;
62584;SDS011;48643;51.670;5.808;2024-03-06T08:23:18;9.93;;;6.82;;
62584;SDS011;48643;51.670;5.808;2024-03-06T08:25:46;10.90;;;6.30;;
62584;SDS011;48643;51.670;5.808;2024-03-06T08:28:13;12.27;;;6.45;;
62584;SDS011;48643;51.670;5.808;2024-03-06T08:30:39;9.18;;;6.10;;
62584;SDS011;48643;51.670;5.808;2024-03-06T08:33:06;9.55;;;6.38;;
62584;SDS011;48643;51.670;5.808;2024-03-06T08:35:34;7.90;;;5.70;;
62584;SDS011;48643;51.670;5.808;2024-03-06T08:38:01;7.80;;;5.80;;
62584;SDS011;48643;51.670;5.808;2024-03-06T08:40:28;10.55;;;6.43;;
62584;SDS011;48643;51.670;5.808;2024-03-06T08:42:55;8.98;;;5.78;;
62584;SDS011;48643;51.670;5.808;2024-03-06T08:45:22;8.18;;;5.45;;
62584;SDS011;48643;51.670;5.808;2024-03-06T08:47:52;9.63;;;5.95;;
62584;SDS011;48643;51.670;5.808;2024-03-06T08:50:22;9.88;;;5.70;;
62584;SDS011;48643;51.670;5.808;2024-03-06T08:52:50;8.68;;;5.15;;
62584;SDS011;48643;51.670;5.808;2024-03-06T08:55:18;7.78;;;5.40;;
62584;SDS011;48643;51.670;5.808;2024-03-06T08:57:45;7.35;;;5.10;;
62584;SDS011;48643;51.670;5.808;2024-03-06T09:00:12;8.80;;;5.40;;
62584;SDS011;48643;51.670;5.808;2024-03-06T09:02:41;8.15;;;5.00;;
62584;SDS011;48643;51.670;5.808;2024-03-06T09:05:09;7.93;;;5.13;;
62584;SDS011;48643;51.670;5.808;2024-03-06T09:10:07;7.53;;;4.70;;
62584;SDS011;48643;51.670;5.808;2024-03-06T09:12:36;7.68;;;4.68;;
62584;SDS011;48643;51.670;5.808;2024-03-06T09:15:03;7.43;;;5.07;;
62584;SDS011;48643;51.670;5.808;2024-03-06T09:17:30;6.80;;;4.70;;
62584;SDS011;48643;51.670;5.808;2024-03-06T09:19:57;9.63;;;5.13;;
62584;SDS011;48643;51.670;5.808;2024-03-06T09:22:41;8.68;;;5.10;;
62584;SDS011;48643;51.670;5.808;2024-03-06T09:25:09;8.85;;;4.70;;
62584;SDS011;48643;51.670;5.808;2024-03-06T09:27:40;9.90;;;4.88;;
62584;SDS011;48643;51.670;5.808;2024-03-06T09:30:08;10.77;;;5.07;;
62584;SDS011;48643;51.670;5.808;2024-03-06T09:32:37;17.60;;;4.90;;
62584;SDS011;48643;51.670;5.808;2024-03-06T09:35:04;8.40;;;4.68;;
62584;SDS011;48643;51.670;5.808;2024-03-06T09:37:32;9.93;;;5.10;;
62584;SDS011;48643;51.670;5.808;2024-03-06T09:39:59;9.20;;;4.68;;
62584;SDS011;48643;51.670;5.808;2024-03-06T09:42:26;11.10;;;4.88;;
62584;SDS011;48643;51.670;5.808;2024-03-06T09:44:53;9.00;;;5.00;;
62584;SDS011;48643;51.670;5.808;2024-03-06T09:47:23;9.05;;;5.10;;
62584;SDS011;48643;51.670;5.808;2024-03-06T09:49:53;11.10;;;5.53;;
62584;SDS011;48643;51.670;5.808;2024-03-06T09:52:21;9.15;;;5.78;;
62584;SDS011;48643;51.670;5.808;2024-03-06T09:54:48;12.23;;;6.35;;
62584;SDS011;48643;51.670;5.808;2024-03-06T09:57:15;11.00;;;5.85;;
62584;SDS011;48643;51.670;5.808;2024-03-06T09:59:42;10.07;;;5.65;;
62584;SDS011;48643;51.670;5.808;2024-03-06T10:05:20;10.63;;;5.80;;
62584;SDS011;48643;51.670;5.808;2024-03-06T10:07:48;10.55;;;5.60;;
62584;SDS011;48643;51.670;5.808;2024-03-06T10:10:16;9.18;;;5.47;;
62584;SDS011;48643;51.670;5.808;2024-03-06T10:12:46;11.57;;;6.00;;
62584;SDS011;48643;51.670;5.808;2024-03-06T10:15:16;11.52;;;5.82;;
62584;SDS011;48643;51.670;5.808;2024-03-06T10:17:43;11.07;;;6.22;;
62584;SDS011;48643;51.670;5.808;2024-03-06T10:22:54;12.57;;;6.60;;
62584;SDS011;48643;51.670;5.808;2024-03-06T10:25:24;15.60;;;6.88;;
62584;SDS011;48643;51.670;5.808;2024-03-06T10:28:06;14.60;;;7.25;;
62584;SDS011;48643;51.670;5.808;2024-03-06T10:30:34;13.60;;;7.18;;
62584;SDS011;48643;51.670;5.808;2024-03-06T10:33:12;13.13;;;7.20;;
62584;SDS011;48643;51.670;5.808;2024-03-06T10:35:40;14.68;;;7.10;;
62584;SDS011;48643;51.670;5.808;2024-03-06T10:38:08;17.87;;;8.60;;
62584;SDS011;48643;51.670;5.808;2024-03-06T10:40:38;19.25;;;9.75;;
62584;SDS011;48643;51.670;5.808;2024-03-06T10:43:06;22.00;;;10.63;;
62584;SDS011;48643;51.670;5.808;2024-03-06T10:48:13;16.75;;;9.95;;
62584;SDS011;48643;51.670;5.808;2024-03-06T10:50:41;20.25;;;9.68;;
62584;SDS011;48643;51.670;5.808;2024-03-06T10:53:12;21.20;;;9.32;;
62584;SDS011;48643;51.670;5.808;2024-03-06T10:55:49;17.00;;;9.35;;
62584;SDS011;48643;51.670;5.808;2024-03-06T10:58:17;22.48;;;9.27;;
62584;SDS011;48643;51.670;5.808;2024-03-06T11:00:45;18.13;;;9.13;;
62584;SDS011;48643;51.670;5.808;2024-03-06T11:03:16;15.32;;;9.10;;
62584;SDS011;48643;51.670;5.808;2024-03-06T11:05:44;16.40;;;8.40;;
62584;SDS011;48643;51.670;5.808;2024-03-06T11:08:14;16.65;;;8.40;;
62584;SDS011;48643;51.670;5.808;2024-03-06T11:10:42;15.73;;;8.30;;
62584;SDS011;48643;51.670;5.808;2024-03-06T11:13:25;17.00;;;7.93;;
62584;SDS011;48643;51.670;5.808;2024-03-06T11:15:57;13.88;;;8.02;;
62584;SDS011;48643;51.670;5.808;2024-03-06T11:20:59;13.80;;;7.45;;
62584;SDS011;48643;51.670;5.808;2024-03-06T11:23:32;14.55;;;7.68;;
62584;SDS011;48643;51.670;5.808;2024-03-06T11:26:06;15.65;;;7.78;;
62584;SDS011;48643;51.670;5.808;2024-03-06T11:28:35;12.15;;;7.50;;
62584;SDS011;48643;51.670;5.808;2024-03-06T11:31:05;11.07;;;7.22;;
62584;SDS011;48643;51.670;5.808;2024-03-06T11:33:46;13.48;;;7.55;;
62584;SDS011;48643;51.670;5.808;2024-03-06T11:38:51;17.65;;;9.25;;
62584;SDS011;48643;51.670;5.808;2024-03-06T11:44:15;15.07;;;8.48;;
62584;SDS011;48643;51.670;5.808;2024-03-06T11:46:59;13.90;;;8.90;;
62584;SDS011;48643;51.670;5.808;2024-03-06T11:49:27;14.18;;;9.27;;
62584;SDS011;48643;51.670;5.808;2024-03-06T11:51:56;17.03;;;9.37;;
62584;SDS011;48643;51.670;5.808;2024-03-06T11:54:27;15.75;;;8.60;;
62584;SDS011;48643;51.670;5.808;2024-03-06T11:56:56;18.17;;;11.70;;
62584;SDS011;48643;51.670;5.808;2024-03-06T11:59:24;18.50;;;11.07;;
62584;SDS011;48643;51.670;5.808;2024-03-06T12:01:52;14.38;;;9.55;;
62584;SDS011;48643;51.670;5.808;2024-03-06T12:04:24;15.45;;;11.00;;
62584;SDS011;48643;51.670;5.808;2024-03-06T12:06:51;18.27;;;9.75;;
62584;SDS011;48643;51.670;5.808;2024-03-06T12:09:18;16.98;;;9.30;;
62584;SDS011;48643;51.670;5.808;2024-03-06T12:11:44;13.88;;;8.73;;
62584;SDS011;48643;51.670;5.808;2024-03-06T12:14:19;14.00;;;9.00;;
62584;SDS011;48643;51.670;5.808;2024-03-06T12:19:26;16.45;;;8.35;;
62584;SDS011;48643;51.670;5.808;2024-03-06T12:21:54;13.07;;;7.63;;
62584;SDS011;48643;51.670;5.808;2024-03-06T12:24:21;14.50;;;8.02;;
62584;SDS011;48643;51.670;5.808;2024-03-06T12:26:57;11.40;;;7.80;;
62584;SDS011;48643;51.670;5.808;2024-03-06T12:29:29;11.35;;;7.55;;
62584;SDS011;48643;51.670;5.808;2024-03-06T12:31:58;13.45;;;6.97;;
62584;SDS011;48643;51.670;5.808;2024-03-06T12:34:26;16.67;;;7.22;;
62584;SDS011;48643;51.670;5.808;2024-03-06T12:36:53;11.70;;;6.70;;
62584;SDS011;48643;51.670;5.808;2024-03-06T12:39:20;12.13;;;7.05;;
62584;SDS011;48643;51.670;5.808;2024-03-06T12:41:50;11.50;;;6.45;;
62584;SDS011;48643;51.670;5.808;2024-03-06T12:44:21;8.05;;;6.05;;
62584;SDS011;48643;51.670;5.808;2024-03-06T12:46:48;12.80;;;6.20;;
62584;SDS011;48643;51.670;5.808;2024-03-06T12:49:15;12.38;;;5.93;;
62584;SDS011;48643;51.670;5.808;2024-03-06T12:51:42;9.82;;;6.40;;
62584;SDS011;48643;51.670;5.808;2024-03-06T12:54:10;11.57;;;5.93;;
62584;SDS011;48643;51.670;5.808;2024-03-06T12:56:37;8.50;;;5.93;;
62584;SDS011;48643;51.670;5.808;2024-03-06T12:59:04;10.82;;;6.10;;
62584;SDS011;48643;51.670;5.808;2024-03-06T13:01:31;10.38;;;5.70;;
62584;SDS011;48643;51.670;5.808;2024-03-06T13:03:58;12.02;;;5.68;;
62584;SDS011;48643;51.670;5.808;2024-03-06T13:06:32;13.00;;;5.72;;
62584;SDS011;48643;51.670;5.808;2024-03-06T13:08:59;14.43;;;6.00;;
62584;SDS011;48643;51.670;5.808;2024-03-06T13:11:26;11.15;;;5.38;;
62584;SDS011;48643;51.670;5.808;2024-03-06T13:13:53;14.27;;;5.32;;
62584;SDS011;48643;51.670;5.808;2024-03-06T13:16:20;14.18;;;5.57;;
62584;SDS011;48643;51.670;5.808;2024-03-06T13:18:48;13.70;;;5.43;;
62584;SDS011;48643;51.670;5.808;2024-03-06T13:21:20;9.38;;;4.50;;
62584;SDS011;48643;51.670;5.808;2024-03-06T13:23:47;12.98;;;5.10;;
62584;SDS011;48643;51.670;5.808;2024-03-06T13:26:14;10.77;;;5.22;;
62584;SDS011;48643;51.670;5.808;2024-03-06T13:28:41;7.90;;;4.75;;
62584;SDS011;48643;51.670;5.808;2024-03-06T13:31:08;7.07;;;4.85;;
62584;SDS011;48643;51.670;5.808;2024-03-06T13:33:35;8.60;;;4.57;;
62584;SDS011;48643;51.670;5.808;2024-03-06T13:36:02;13.90;;;5.13;;
62584;SDS011;48643;51.670;5.808;2024-03-06T13:40:58;13.20;;;4.70;;
62584;SDS011;48643;51.670;5.808;2024-03-06T13:43:28;10.98;;;4.95;;
62584;SDS011;48643;51.670;5.808;2024-03-06T13:45:55;8.02;;;4.88;;
62584;SDS011;48643;51.670;5.808;2024-03-06T13:48:22;17.83;;;5.57;;
62584;SDS011;48643;51.670;5.808;2024-03-06T13:50:49;11.15;;;5.00;;
62584;SDS011;48643;51.670;5.808;2024-03-06T13:53:16;12.85;;;6.07;;
62584;SDS011;48643;51.670;5.808;2024-03-06T13:55:43;16.10;;;5.97;;
62584;SDS011;48643;51.670;5.808;2024-03-06T13:58:10;10.68;;;5.13;;
62584;SDS011;48643;51.670;5.808;2024-03-06T14:00:38;12.02;;;4.93;;
62584;SDS011;48643;51.670;5.808;2024-03-06T14:03:04;12.57;;;5.10;;
62584;SDS011;48643;51.670;5.808;2024-03-06T14:05:31;8.95;;;5.20;;
62584;SDS011;48643;51.670;5.808;2024-03-06T14:07:58;9.07;;;5.22;;
62584;SDS011;48643;51.670;5.808;2024-03-06T14:10:25;7.95;;;5.00;;
62584;SDS011;48643;51.670;5.808;2024-03-06T14:12:53;8.40;;;4.90;;
62584;SDS011;48643;51.670;5.808;2024-03-06T14:15:21;9.27;;;4.83;;
62584;SDS011;48643;51.670;5.808;2024-03-06T14:17:49;11.05;;;5.38;;
62584;SDS011;48643;51.670;5.808;2024-03-06T14:20:17;11.18;;;4.97;;
62584;SDS011;48643;51.670;5.808;2024-03-06T14:22:44;7.95;;;4.65;;
62584;SDS011;48643;51.670;5.808;2024-03-06T14:25:11;7.28;;;4.13;;
62584;SDS011;48643;51.670;5.808;2024-03-06T14:27:38;5.40;;;4.13;;
62584;SDS011;48643;51.670;5.808;2024-03-06T14:30:06;5.97;;;3.90;;
62584;SDS011;48643;51.670;5.808;2024-03-06T14:32:33;8.93;;;4.18;;
62584;SDS011;48643;51.670;5.808;2024-03-06T14:35:01;7.57;;;4.10;;
62584;SDS011;48643;51.670;5.808;2024-03-06T14:37:28;9.40;;;4.00;;
62584;SDS011;48643;51.670;5.808;2024-03-06T14:39:54;11.07;;;4.20;;
62584;SDS011;48643;51.670;5.808;2024-03-06T14:42:21;8.80;;;4.00;;
62584;SDS011;48643;51.670;5.808;2024-03-06T14:44:49;8.40;;;4.15;;
62584;SDS011;48643;51.670;5.808;2024-03-06T14:47:16;7.40;;;3.80;;
62584;SDS011;48643;51.670;5.808;2024-03-06T14:49:43;7.10;;;3.90;;
62584;SDS011;48643;51.670;5.808;2024-03-06T14:52:11;5.90;;;4.00;;
62584;SDS011;48643;51.670;5.808;2024-03-06T14:54:39;6.85;;;3.90;;
62584;SDS011;48643;51.670;5.808;2024-03-06T14:57:10;4.85;;;3.67;;
62584;SDS011;48643;51.670;5.808;2024-03-06T14:59:38;5.40;;;3.55;;
62584;SDS011;48643;51.670;5.808;2024-03-06T15:02:05;6.78;;;3.80;;
62584;SDS011;48643;51.670;5.808;2024-03-06T15:04:32;11.38;;;4.22;;
62584;SDS011;48643;51.670;5.808;2024-03-06T15:06:59;5.60;;;3.75;;
62584;SDS011;48643;51.670;5.808;2024-03-06T15:09:26;8.68;;;3.72;;
62584;SDS011;48643;51.670;5.808;2024-03-06T15:11:54;6.55;;;3.40;;
62584;SDS011;48643;51.670;5.808;2024-03-06T15:14:23;5.78;;;3.90;;
62584;SDS011;48643;51.670;5.808;2024-03-06T15:16:50;8.70;;;3.70;;
62584;SDS011;48643;51.670;5.808;2024-03-06T15:19:17;6.68;;;4.10;;